sensor_id;sensor_type;location;lat;lon;timestamp;P1;durP1;ratioP1;P2;durP2;ratioP2
1699;SDS011;847;48.058;7.810;2024-01-30T00:00:41;10.57;;;7.73;;
1699;SDS011;847;48.058;7.810;2024-01-30T00:03:08;8.57;;;7.20;;
1699;SDS011;847;48.058;7.810;2024-01-30T00:05:35;9.43;;;7.50;;
1699;SDS011;847;48.058;7.810;2024-01-30T00:08:02;11.00;;;8.23;;
1699;SDS011;847;48.058;7.810;2024-01-30T00:10:29;19.00;;;10.70;;
1699;SDS011;847;48.058;7.810;2024-01-30T00:12:55;11.40;;;8.80;;
1699;SDS011;847;48.058;7.810;2024-01-30T00:15:29;14.20;;;10.77;;
1699;SDS011;847;48.058;7.810;2024-01-30T00:17:55;36.53;;;22.40;;
1699;SDS011;847;48.058;7.810;2024-01-30T00:20:22;14.50;;;9.63;;
1699;SDS011;847;48.058;7.810;2024-01-30T00:22:49;12.57;;;10.00;;
1699;SDS011;847;48.058;7.810;2024-01-30T00:25:15;14.53;;;10.00;;
1699;SDS011;847;48.058;7.810;2024-01-30T00:27:42;28.50;;;15.20;;
1699;SDS011;847;48.058;7.810;2024-01-30T00:30:09;20.13;;;13.93;;
1699;SDS011;847;48.058;7.810;2024-01-30T00:32:38;20.93;;;14.70;;
1699;SDS011;847;48.058;7.810;2024-01-30T00:35:05;23.00;;;14.03;;
1699;SDS011;847;48.058;7.810;2024-01-30T00:37:32;19.43;;;14.37;;
1699;SDS011;847;48.058;7.810;2024-01-30T00:39:58;15.90;;;12.73;;
1699;SDS011;847;48.058;7.810;2024-01-30T00:42:25;15.57;;;11.83;;
1699;SDS011;847;48.058;7.810;2024-01-30T00:44:52;15.20;;;11.90;;
1699;SDS011;847;48.058;7.810;2024-01-30T00:47:18;11.73;;;9.50;;
1699;SDS011;847;48.058;7.810;2024-01-30T00:49:46;11.53;;;9.17;;
1699;SDS011;847;48.058;7.810;2024-01-30T00:52:13;13.87;;;10.40;;
1699;SDS011;847;48.058;7.810;2024-01-30T00:54:40;15.80;;;10.70;;
1699;SDS011;847;48.058;7.810;2024-01-30T00:57:08;22.43;;;14.37;;
1699;SDS011;847;48.058;7.810;2024-01-30T00:59:34;15.80;;;11.07;;
1699;SDS011;847;48.058;7.810;2024-01-30T01:02:01;14.80;;;11.27;;
1699;SDS011;847;48.058;7.810;2024-01-30T01:04:28;13.70;;;8.53;;
1699;SDS011;847;48.058;7.810;2024-01-30T01:06:56;11.77;;;10.47;;
1699;SDS011;847;48.058;7.810;2024-01-30T01:09:23;11.67;;;9.47;;
1699;SDS011;847;48.058;7.810;2024-01-30T01:11:50;13.40;;;9.30;;
1699;SDS011;847;48.058;7.810;2024-01-30T01:14:21;11.07;;;8.70;;
1699;SDS011;847;48.058;7.810;2024-01-30T01:16:54;13.73;;;9.47;;
1699;SDS011;847;48.058;7.810;2024-01-30T01:19:21;11.00;;;8.33;;
1699;SDS011;847;48.058;7.810;2024-01-30T01:21:48;11.37;;;8.93;;
1699;SDS011;847;48.058;7.810;2024-01-30T01:24:16;12.60;;;8.70;;
1699;SDS011;847;48.058;7.810;2024-01-30T01:26:42;9.60;;;7.97;;
1699;SDS011;847;48.058;7.810;2024-01-30T01:29:09;11.70;;;10.37;;
1699;SDS011;847;48.058;7.810;2024-01-30T01:31:37;12.07;;;8.87;;
1699;SDS011;847;48.058;7.810;2024-01-30T01:34:08;15.13;;;9.07;;
1699;SDS011;847;48.058;7.810;2024-01-30T01:36:35;10.73;;;8.77;;
1699;SDS011;847;48.058;7.810;2024-01-30T01:39:02;13.80;;;10.33;;
1699;SDS011;847;48.058;7.810;2024-01-30T01:41:30;12.07;;;9.90;;
1699;SDS011;847;48.058;7.810;2024-01-30T01:43:57;12.33;;;9.30;;
1699;SDS011;847;48.058;7.810;2024-01-30T01:46:26;14.10;;;10.50;;
1699;SDS011;847;48.058;7.810;2024-01-30T01:48:53;12.00;;;9.17;;
1699;SDS011;847;48.058;7.810;2024-01-30T01:51:21;13.77;;;9.50;;
1699;SDS011;847;48.058;7.810;2024-01-30T01:53:49;11.43;;;9.93;;
1699;SDS011;847;48.058;7.810;2024-01-30T01:56:15;13.37;;;9.20;;
1699;SDS011;847;48.058;7.810;2024-01-30T01:58:44;12.63;;;9.73;;
1699;SDS011;847;48.058;7.810;2024-01-30T02:01:13;9.97;;;8.90;;
1699;SDS011;847;48.058;7.810;2024-01-30T02:03:48;11.63;;;10.30;;
1699;SDS011;847;48.058;7.810;2024-01-30T02:06:15;10.53;;;9.43;;
1699;SDS011;847;48.058;7.810;2024-01-30T02:08:42;11.30;;;9.00;;
1699;SDS011;847;48.058;7.810;2024-01-30T02:11:09;12.70;;;8.97;;
1699;SDS011;847;48.058;7.810;2024-01-30T02:13:36;10.10;;;9.03;;
1699;SDS011;847;48.058;7.810;2024-01-30T02:16:05;8.90;;;6.67;;
1699;SDS011;847;48.058;7.810;2024-01-30T02:18:32;9.07;;;7.67;;
1699;SDS011;847;48.058;7.810;2024-01-30T02:20:58;9.40;;;7.20;;
1699;SDS011;847;48.058;7.810;2024-01-30T02:23:28;9.17;;;7.60;;
1699;SDS011;847;48.058;7.810;2024-01-30T02:25:56;9.40;;;6.80;;
1699;SDS011;847;48.058;7.810;2024-01-30T02:28:23;11.17;;;8.37;;
1699;SDS011;847;48.058;7.810;2024-01-30T02:30:50;10.10;;;7.73;;
1699;SDS011;847;48.058;7.810;2024-01-30T02:33:16;9.83;;;8.23;;
1699;SDS011;847;48.058;7.810;2024-01-30T02:35:46;10.17;;;7.27;;
1699;SDS011;847;48.058;7.810;2024-01-30T02:38:14;8.87;;;7.97;;
1699;SDS011;847;48.058;7.810;2024-01-30T02:40:43;9.73;;;8.27;;
1699;SDS011;847;48.058;7.810;2024-01-30T02:43:10;10.30;;;7.90;;
1699;SDS011;847;48.058;7.810;2024-01-30T02:45:37;9.67;;;7.67;;
1699;SDS011;847;48.058;7.810;2024-01-30T02:48:04;8.73;;;7.53;;
1699;SDS011;847;48.058;7.810;2024-01-30T02:50:31;9.63;;;8.70;;
1699;SDS011;847;48.058;7.810;2024-01-30T02:52:58;10.47;;;7.90;;
1699;SDS011;847;48.058;7.810;2024-01-30T02:55:24;9.60;;;7.83;;
1699;SDS011;847;48.058;7.810;2024-01-30T02:57:52;12.23;;;8.00;;
1699;SDS011;847;48.058;7.810;2024-01-30T03:00:19;11.97;;;8.07;;
1699;SDS011;847;48.058;7.810;2024-01-30T03:02:46;9.43;;;8.50;;
1699;SDS011;847;48.058;7.810;2024-01-30T03:05:15;10.97;;;9.00;;
1699;SDS011;847;48.058;7.810;2024-01-30T03:07:41;10.70;;;8.90;;
1699;SDS011;847;48.058;7.810;2024-01-30T03:10:08;11.80;;;8.57;;
1699;SDS011;847;48.058;7.810;2024-01-30T03:12:35;12.03;;;8.03;;
1699;SDS011;847;48.058;7.810;2024-01-30T03:15:04;10.57;;;7.70;;
1699;SDS011;847;48.058;7.810;2024-01-30T03:17:31;8.30;;;6.60;;
1699;SDS011;847;48.058;7.810;2024-01-30T03:19:58;9.00;;;8.10;;
1699;SDS011;847;48.058;7.810;2024-01-30T03:22:25;9.47;;;7.70;;
1699;SDS011;847;48.058;7.810;2024-01-30T03:24:51;11.13;;;6.80;;
1699;SDS011;847;48.058;7.810;2024-01-30T03:27:18;8.33;;;7.10;;
1699;SDS011;847;48.058;7.810;2024-01-30T03:29:45;8.40;;;7.50;;
1699;SDS011;847;48.058;7.810;2024-01-30T03:32:13;9.10;;;7.50;;
1699;SDS011;847;48.058;7.810;2024-01-30T03:34:40;7.70;;;6.60;;
1699;SDS011;847;48.058;7.810;2024-01-30T03:37:06;6.10;;;4.87;;
1699;SDS011;847;48.058;7.810;2024-01-30T03:39:33;5.87;;;3.53;;
1699;SDS011;847;48.058;7.810;2024-01-30T03:42:02;5.07;;;3.87;;
1699;SDS011;847;48.058;7.810;2024-01-30T03:44:29;3.90;;;3.40;;
1699;SDS011;847;48.058;7.810;2024-01-30T03:46:56;3.50;;;2.70;;
1699;SDS011;847;48.058;7.810;2024-01-30T03:49:25;3.53;;;2.77;;
1699;SDS011;847;48.058;7.810;2024-01-30T03:51:52;4.23;;;3.00;;
1699;SDS011;847;48.058;7.810;2024-01-30T03:54:18;3.53;;;3.23;;
1699;SDS011;847;48.058;7.810;2024-01-30T03:56:45;3.17;;;2.87;;
1699;SDS011;847;48.058;7.810;2024-01-30T03:59:14;3.60;;;3.23;;
1699;SDS011;847;48.058;7.810;2024-01-30T04:01:41;5.03;;;3.00;;
1699;SDS011;847;48.058;7.810;2024-01-30T04:04:08;5.47;;;3.40;;
1699;SDS011;847;48.058;7.810;2024-01-30T04:06:36;5.20;;;4.70;;
1699;SDS011;847;48.058;7.810;2024-01-30T04:09:03;5.70;;;4.90;;
1699;SDS011;847;48.058;7.810;2024-01-30T04:11:29;7.17;;;4.90;;
1699;SDS011;847;48.058;7.810;2024-01-30T04:13:56;7.53;;;6.73;;
1699;SDS011;847;48.058;7.810;2024-01-30T04:16:23;6.50;;;5.90;;
1699;SDS011;847;48.058;7.810;2024-01-30T04:18:50;8.23;;;6.87;;
1699;SDS011;847;48.058;7.810;2024-01-30T04:21:17;7.03;;;6.00;;
1699;SDS011;847;48.058;7.810;2024-01-30T04:23:45;7.60;;;6.90;;
1699;SDS011;847;48.058;7.810;2024-01-30T04:26:13;8.20;;;6.77;;
1699;SDS011;847;48.058;7.810;2024-01-30T04:28:41;7.93;;;6.07;;
1699;SDS011;847;48.058;7.810;2024-01-30T04:31:07;7.90;;;6.60;;
1699;SDS011;847;48.058;7.810;2024-01-30T04:33:34;7.50;;;6.70;;
1699;SDS011;847;48.058;7.810;2024-01-30T04:36:01;8.40;;;6.27;;
1699;SDS011;847;48.058;7.810;2024-01-30T04:38:29;7.60;;;6.90;;
1699;SDS011;847;48.058;7.810;2024-01-30T04:40:57;7.83;;;6.33;;
1699;SDS011;847;48.058;7.810;2024-01-30T04:43:23;10.17;;;6.80;;
1699;SDS011;847;48.058;7.810;2024-01-30T04:45:51;8.60;;;6.40;;
1699;SDS011;847;48.058;7.810;2024-01-30T04:48:18;8.50;;;6.47;;
1699;SDS011;847;48.058;7.810;2024-01-30T04:50:45;7.47;;;6.67;;
1699;SDS011;847;48.058;7.810;2024-01-30T04:53:12;7.90;;;6.27;;
1699;SDS011;847;48.058;7.810;2024-01-30T04:55:40;8.13;;;6.80;;
1699;SDS011;847;48.058;7.810;2024-01-30T04:58:08;8.97;;;6.60;;
1699;SDS011;847;48.058;7.810;2024-01-30T05:00:45;8.50;;;6.80;;
1699;SDS011;847;48.058;7.810;2024-01-30T05:03:16;9.33;;;7.00;;
1699;SDS011;847;48.058;7.810;2024-01-30T05:05:43;11.17;;;7.10;;
1699;SDS011;847;48.058;7.810;2024-01-30T05:08:10;8.47;;;6.57;;
1699;SDS011;847;48.058;7.810;2024-01-30T05:10:37;11.80;;;6.63;;
1699;SDS011;847;48.058;7.810;2024-01-30T05:13:04;8.33;;;5.67;;
1699;SDS011;847;48.058;7.810;2024-01-30T05:15:32;9.53;;;5.60;;
1699;SDS011;847;48.058;7.810;2024-01-30T05:17:59;6.80;;;6.10;;
1699;SDS011;847;48.058;7.810;2024-01-30T05:20:26;7.73;;;6.93;;
1699;SDS011;847;48.058;7.810;2024-01-30T05:22:53;6.80;;;6.00;;
1699;SDS011;847;48.058;7.810;2024-01-30T05:25:36;8.53;;;6.37;;
1699;SDS011;847;48.058;7.810;2024-01-30T05:28:03;6.60;;;6.00;;
1699;SDS011;847;48.058;7.810;2024-01-30T05:30:33;9.00;;;5.70;;
1699;SDS011;847;48.058;7.810;2024-01-30T05:33:01;6.30;;;5.70;;
1699;SDS011;847;48.058;7.810;2024-01-30T05:35:28;8.37;;;6.17;;
1699;SDS011;847;48.058;7.810;2024-01-30T05:37:56;7.07;;;6.27;;
1699;SDS011;847;48.058;7.810;2024-01-30T05:40:23;8.23;;;6.53;;
1699;SDS011;847;48.058;7.810;2024-01-30T05:42:50;8.33;;;6.10;;
1699;SDS011;847;48.058;7.810;2024-01-30T05:45:17;6.20;;;5.57;;
1699;SDS011;847;48.058;7.810;2024-01-30T05:47:45;9.37;;;6.37;;
1699;SDS011;847;48.058;7.810;2024-01-30T05:50:12;10.20;;;6.00;;
1699;SDS011;847;48.058;7.810;2024-01-30T05:52:39;7.07;;;6.37;;
1699;SDS011;847;48.058;7.810;2024-01-30T05:55:06;12.47;;;8.13;;
1699;SDS011;847;48.058;7.810;2024-01-30T05:57:33;8.70;;;7.00;;
1699;SDS011;847;48.058;7.810;2024-01-30T06:00:01;8.17;;;6.10;;
1699;SDS011;847;48.058;7.810;2024-01-30T06:02:28;11.17;;;6.93;;
1699;SDS011;847;48.058;7.810;2024-01-30T06:04:56;11.20;;;6.47;;
1699;SDS011;847;48.058;7.810;2024-01-30T06:07:24;9.40;;;5.67;;
1699;SDS011;847;48.058;7.810;2024-01-30T06:09:51;9.17;;;6.17;;
1699;SDS011;847;48.058;7.810;2024-01-30T06:12:17;7.07;;;5.97;;
1699;SDS011;847;48.058;7.810;2024-01-30T06:14:44;8.00;;;6.83;;
1699;SDS011;847;48.058;7.810;2024-01-30T06:17:11;8.57;;;7.40;;
1699;SDS011;847;48.058;7.810;2024-01-30T06:19:38;9.70;;;8.00;;
1699;SDS011;847;48.058;7.810;2024-01-30T06:22:07;7.20;;;5.90;;
1699;SDS011;847;48.058;7.810;2024-01-30T06:24:34;11.47;;;7.97;;
1699;SDS011;847;48.058;7.810;2024-01-30T06:27:00;8.33;;;7.23;;
1699;SDS011;847;48.058;7.810;2024-01-30T06:29:27;8.60;;;6.60;;
1699;SDS011;847;48.058;7.810;2024-01-30T06:31:54;7.00;;;6.30;;
1699;SDS011;847;48.058;7.810;2024-01-30T06:34:22;7.03;;;6.30;;
1699;SDS011;847;48.058;7.810;2024-01-30T06:36:51;7.13;;;6.33;;
1699;SDS011;847;48.058;7.810;2024-01-30T06:39:19;8.13;;;6.10;;
1699;SDS011;847;48.058;7.810;2024-01-30T06:41:46;12.33;;;5.93;;
1699;SDS011;847;48.058;7.810;2024-01-30T06:44:12;7.47;;;6.70;;
1699;SDS011;847;48.058;7.810;2024-01-30T06:46:39;6.80;;;5.77;;
1699;SDS011;847;48.058;7.810;2024-01-30T06:49:06;5.60;;;5.07;;
1699;SDS011;847;48.058;7.810;2024-01-30T06:51:33;7.80;;;5.30;;
1699;SDS011;847;48.058;7.810;2024-01-30T06:53:59;7.80;;;6.60;;
1699;SDS011;847;48.058;7.810;2024-01-30T06:56:27;7.87;;;5.63;;
1699;SDS011;847;48.058;7.810;2024-01-30T06:58:54;8.17;;;5.60;;
1699;SDS011;847;48.058;7.810;2024-01-30T07:01:27;7.27;;;5.40;;
1699;SDS011;847;48.058;7.810;2024-01-30T07:03:54;7.57;;;5.07;;
1699;SDS011;847;48.058;7.810;2024-01-30T07:06:23;4.60;;;3.47;;
1699;SDS011;847;48.058;7.810;2024-01-30T07:08:49;7.77;;;3.63;;
1699;SDS011;847;48.058;7.810;2024-01-30T07:11:18;5.40;;;3.63;;
1699;SDS011;847;48.058;7.810;2024-01-30T07:13:49;5.73;;;4.00;;
1699;SDS011;847;48.058;7.810;2024-01-30T07:16:16;5.07;;;3.80;;
1699;SDS011;847;48.058;7.810;2024-01-30T07:18:50;5.40;;;4.00;;
1699;SDS011;847;48.058;7.810;2024-01-30T07:21:17;4.20;;;3.67;;
1699;SDS011;847;48.058;7.810;2024-01-30T07:23:46;4.73;;;3.90;;
1699;SDS011;847;48.058;7.810;2024-01-30T07:26:16;4.70;;;3.90;;
1699;SDS011;847;48.058;7.810;2024-01-30T07:28:43;4.87;;;3.87;;
1699;SDS011;847;48.058;7.810;2024-01-30T07:31:11;7.40;;;3.87;;
1699;SDS011;847;48.058;7.810;2024-01-30T07:33:38;4.20;;;3.37;;
1699;SDS011;847;48.058;7.810;2024-01-30T07:36:05;4.90;;;4.43;;
1699;SDS011;847;48.058;7.810;2024-01-30T07:38:32;5.03;;;3.80;;
1699;SDS011;847;48.058;7.810;2024-01-30T07:40:59;6.90;;;3.90;;
1699;SDS011;847;48.058;7.810;2024-01-30T07:43:25;4.53;;;3.80;;
1699;SDS011;847;48.058;7.810;2024-01-30T07:45:52;4.70;;;3.70;;
1699;SDS011;847;48.058;7.810;2024-01-30T07:48:20;3.90;;;3.50;;
1699;SDS011;847;48.058;7.810;2024-01-30T07:50:47;4.23;;;3.70;;
1699;SDS011;847;48.058;7.810;2024-01-30T07:53:16;3.70;;;3.40;;
1699;SDS011;847;48.058;7.810;2024-01-30T07:55:43;3.20;;;2.90;;
1699;SDS011;847;48.058;7.810;2024-01-30T07:58:11;5.60;;;3.90;;
1699;SDS011;847;48.058;7.810;2024-01-30T08:00:38;6.33;;;3.80;;
1699;SDS011;847;48.058;7.810;2024-01-30T08:03:05;4.57;;;3.50;;
1699;SDS011;847;48.058;7.810;2024-01-30T08:05:33;5.20;;;3.60;;
1699;SDS011;847;48.058;7.810;2024-01-30T08:08:00;4.10;;;3.70;;
1699;SDS011;847;48.058;7.810;2024-01-30T08:10:27;3.87;;;3.53;;
1699;SDS011;847;48.058;7.810;2024-01-30T08:12:54;5.93;;;3.37;;
1699;SDS011;847;48.058;7.810;2024-01-30T08:15:21;3.70;;;3.40;;
1699;SDS011;847;48.058;7.810;2024-01-30T08:17:48;3.53;;;3.23;;
1699;SDS011;847;48.058;7.810;2024-01-30T08:22:51;3.20;;;2.73;;
1699;SDS011;847;48.058;7.810;2024-01-30T08:25:24;4.70;;;4.17;;
1699;SDS011;847;48.058;7.810;2024-01-30T08:27:54;3.43;;;3.13;;
1699;SDS011;847;48.058;7.810;2024-01-30T08:33:36;4.07;;;3.70;;
1699;SDS011;847;48.058;7.810;2024-01-30T08:39:27;5.13;;;3.30;;
1699;SDS011;847;48.058;7.810;2024-01-30T08:42:27;3.63;;;3.27;;
1699;SDS011;847;48.058;7.810;2024-01-30T08:45:02;4.40;;;3.67;;
1699;SDS011;847;48.058;7.810;2024-01-30T08:47:36;4.10;;;3.70;;
1699;SDS011;847;48.058;7.810;2024-01-30T08:53:50;4.13;;;2.97;;
1699;SDS011;847;48.058;7.810;2024-01-30T08:58:58;4.20;;;3.50;;
1699;SDS011;847;48.058;7.810;2024-01-30T09:04:19;5.77;;;4.13;;
1699;SDS011;847;48.058;7.810;2024-01-30T09:13:05;7.03;;;4.40;;
1699;SDS011;847;48.058;7.810;2024-01-30T09:25:40;4.77;;;3.60;;
1699;SDS011;847;48.058;7.810;2024-01-30T09:38:04;3.30;;;3.00;;
1699;SDS011;847;48.058;7.810;2024-01-30T10:02:03;4.47;;;3.07;;
1699;SDS011;847;48.058;7.810;2024-01-30T10:15:12;3.87;;;3.47;;
1699;SDS011;847;48.058;7.810;2024-01-30T10:17:46;5.07;;;3.57;;
1699;SDS011;847;48.058;7.810;2024-01-30T10:23:12;4.40;;;3.60;;
1699;SDS011;847;48.058;7.810;2024-01-30T10:25:56;5.77;;;3.80;;
1699;SDS011;847;48.058;7.810;2024-01-30T10:28:27;5.00;;;3.33;;
1699;SDS011;847;48.058;7.810;2024-01-30T10:33:58;5.70;;;3.60;;
1699;SDS011;847;48.058;7.810;2024-01-30T10:39:02;4.10;;;3.03;;
1699;SDS011;847;48.058;7.810;2024-01-30T10:44:24;5.90;;;3.53;;
1699;SDS011;847;48.058;7.810;2024-01-30T10:46:59;5.17;;;3.07;;
1699;SDS011;847;48.058;7.810;2024-01-30T10:52:28;4.10;;;3.17;;
1699;SDS011;847;48.058;7.810;2024-01-30T10:55:19;4.30;;;3.37;;
1699;SDS011;847;48.058;7.810;2024-01-30T10:57:51;5.17;;;3.40;;
1699;SDS011;847;48.058;7.810;2024-01-30T11:03:39;3.53;;;3.20;;
1699;SDS011;847;48.058;7.810;2024-01-30T11:09:32;3.67;;;2.83;;
1699;SDS011;847;48.058;7.810;2024-01-30T11:14:43;4.57;;;3.07;;
1699;SDS011;847;48.058;7.810;2024-01-30T11:17:29;5.63;;;3.50;;
1699;SDS011;847;48.058;7.810;2024-01-30T11:23:15;3.80;;;3.10;;
1699;SDS011;847;48.058;7.810;2024-01-30T11:25:51;5.67;;;2.90;;
1699;SDS011;847;48.058;7.810;2024-01-30T11:28:21;3.40;;;3.00;;
1699;SDS011;847;48.058;7.810;2024-01-30T11:33:59;5.20;;;3.23;;
1699;SDS011;847;48.058;7.810;2024-01-30T11:39:11;3.37;;;3.07;;
1699;SDS011;847;48.058;7.810;2024-01-30T11:41:43;2.87;;;2.60;;
1699;SDS011;847;48.058;7.810;2024-01-30T11:44:17;3.40;;;3.10;;
1699;SDS011;847;48.058;7.810;2024-01-30T11:46:45;4.27;;;3.63;;
1699;SDS011;847;48.058;7.810;2024-01-30T11:49:20;3.03;;;2.60;;
1699;SDS011;847;48.058;7.810;2024-01-30T11:51:52;3.43;;;3.07;;
1699;SDS011;847;48.058;7.810;2024-01-30T11:54:20;3.67;;;3.20;;
1699;SDS011;847;48.058;7.810;2024-01-30T11:56:48;3.77;;;3.30;;
1699;SDS011;847;48.058;7.810;2024-01-30T12:02:23;4.13;;;3.23;;
1699;SDS011;847;48.058;7.810;2024-01-30T12:04:50;3.47;;;3.17;;
1699;SDS011;847;48.058;7.810;2024-01-30T12:07:18;4.63;;;2.90;;
1699;SDS011;847;48.058;7.810;2024-01-30T12:12:40;4.77;;;3.73;;
1699;SDS011;847;48.058;7.810;2024-01-30T12:15:12;4.13;;;3.23;;
1699;SDS011;847;48.058;7.810;2024-01-30T12:17:40;3.47;;;3.17;;
1699;SDS011;847;48.058;7.810;2024-01-30T12:20:18;4.53;;;3.07;;
1699;SDS011;847;48.058;7.810;2024-01-30T12:22:48;3.60;;;3.27;;
1699;SDS011;847;48.058;7.810;2024-01-30T12:25:16;4.30;;;3.40;;
1699;SDS011;847;48.058;7.810;2024-01-30T12:27:46;4.60;;;3.40;;
1699;SDS011;847;48.058;7.810;2024-01-30T12:30:16;7.20;;;3.60;;
1699;SDS011;847;48.058;7.810;2024-01-30T12:32:44;5.23;;;4.30;;
1699;SDS011;847;48.058;7.810;2024-01-30T12:35:13;4.40;;;3.73;;
1699;SDS011;847;48.058;7.810;2024-01-30T12:40:26;8.37;;;4.10;;
1699;SDS011;847;48.058;7.810;2024-01-30T12:42:56;4.47;;;4.07;;
1699;SDS011;847;48.058;7.810;2024-01-30T12:45:23;3.90;;;3.50;;
1699;SDS011;847;48.058;7.810;2024-01-30T12:50:59;5.67;;;3.70;;
1699;SDS011;847;48.058;7.810;2024-01-30T12:53:35;3.97;;;3.20;;
1699;SDS011;847;48.058;7.810;2024-01-30T12:56:03;3.90;;;3.30;;
1699;SDS011;847;48.058;7.810;2024-01-30T12:58:31;4.03;;;3.60;;
1699;SDS011;847;48.058;7.810;2024-01-30T13:00:58;4.10;;;3.53;;
1699;SDS011;847;48.058;7.810;2024-01-30T13:03:25;3.73;;;3.40;;
1699;SDS011;847;48.058;7.810;2024-01-30T13:09:14;3.73;;;3.43;;
1699;SDS011;847;48.058;7.810;2024-01-30T13:11:41;4.30;;;3.57;;
1699;SDS011;847;48.058;7.810;2024-01-30T13:14:09;3.47;;;3.00;;
1699;SDS011;847;48.058;7.810;2024-01-30T13:16:36;4.10;;;3.70;;
1699;SDS011;847;48.058;7.810;2024-01-30T13:19:06;5.90;;;3.90;;
1699;SDS011;847;48.058;7.810;2024-01-30T13:21:33;3.30;;;3.00;;
1699;SDS011;847;48.058;7.810;2024-01-30T13:24:00;3.77;;;3.37;;
1699;SDS011;847;48.058;7.810;2024-01-30T13:29:51;4.00;;;3.53;;
1699;SDS011;847;48.058;7.810;2024-01-30T13:32:18;6.93;;;3.73;;
1699;SDS011;847;48.058;7.810;2024-01-30T13:34:45;5.47;;;3.90;;
1699;SDS011;847;48.058;7.810;2024-01-30T13:37:12;4.07;;;3.43;;
1699;SDS011;847;48.058;7.810;2024-01-30T13:42:58;4.80;;;3.53;;
1699;SDS011;847;48.058;7.810;2024-01-30T13:45:26;5.70;;;4.00;;
1699;SDS011;847;48.058;7.810;2024-01-30T13:51:21;5.70;;;4.40;;
1699;SDS011;847;48.058;7.810;2024-01-30T13:53:51;5.73;;;3.50;;
1699;SDS011;847;48.058;7.810;2024-01-30T13:56:18;4.07;;;3.63;;
1699;SDS011;847;48.058;7.810;2024-01-30T13:58:45;6.83;;;4.03;;
1699;SDS011;847;48.058;7.810;2024-01-30T14:01:15;5.37;;;3.93;;
1699;SDS011;847;48.058;7.810;2024-01-30T14:03:42;4.07;;;3.67;;
1699;SDS011;847;48.058;7.810;2024-01-30T14:06:09;4.83;;;4.30;;
1699;SDS011;847;48.058;7.810;2024-01-30T14:08:36;3.63;;;3.33;;
1699;SDS011;847;48.058;7.810;2024-01-30T14:11:03;6.53;;;3.80;;
1699;SDS011;847;48.058;7.810;2024-01-30T14:13:30;4.13;;;3.73;;
1699;SDS011;847;48.058;7.810;2024-01-30T14:15:58;4.43;;;3.37;;
1699;SDS011;847;48.058;7.810;2024-01-30T14:18:26;5.40;;;4.00;;
1699;SDS011;847;48.058;7.810;2024-01-30T14:20:53;5.20;;;3.80;;
1699;SDS011;847;48.058;7.810;2024-01-30T14:23:20;4.70;;;4.17;;
1699;SDS011;847;48.058;7.810;2024-01-30T14:25:47;7.60;;;6.00;;
1699;SDS011;847;48.058;7.810;2024-01-30T14:28:16;7.80;;;7.00;;
1699;SDS011;847;48.058;7.810;2024-01-30T14:30:43;7.17;;;6.30;;
1699;SDS011;847;48.058;7.810;2024-01-30T14:33:10;4.70;;;3.63;;
1699;SDS011;847;48.058;7.810;2024-01-30T14:35:38;4.43;;;4.03;;
1699;SDS011;847;48.058;7.810;2024-01-30T14:38:05;7.13;;;3.87;;
1699;SDS011;847;48.058;7.810;2024-01-30T14:40:32;5.07;;;3.80;;
1699;SDS011;847;48.058;7.810;2024-01-30T14:42:59;4.77;;;3.60;;
1699;SDS011;847;48.058;7.810;2024-01-30T14:45:26;7.87;;;4.13;;
1699;SDS011;847;48.058;7.810;2024-01-30T14:47:53;5.67;;;3.97;;
1699;SDS011;847;48.058;7.810;2024-01-30T14:50:21;4.80;;;4.37;;
1699;SDS011;847;48.058;7.810;2024-01-30T14:52:49;4.13;;;3.83;;
1699;SDS011;847;48.058;7.810;2024-01-30T14:55:16;5.20;;;3.80;;
1699;SDS011;847;48.058;7.810;2024-01-30T14:57:43;5.63;;;3.70;;
1699;SDS011;847;48.058;7.810;2024-01-30T15:00:11;4.97;;;3.83;;
1699;SDS011;847;48.058;7.810;2024-01-30T15:02:39;4.67;;;3.57;;
1699;SDS011;847;48.058;7.810;2024-01-30T15:05:06;5.30;;;3.70;;
1699;SDS011;847;48.058;7.810;2024-01-30T15:07:35;5.70;;;3.57;;
1699;SDS011;847;48.058;7.810;2024-01-30T15:10:04;5.37;;;3.80;;
1699;SDS011;847;48.058;7.810;2024-01-30T15:12:31;4.07;;;3.70;;
1699;SDS011;847;48.058;7.810;2024-01-30T15:14:58;4.83;;;4.20;;
1699;SDS011;847;48.058;7.810;2024-01-30T15:17:25;5.00;;;3.90;;
1699;SDS011;847;48.058;7.810;2024-01-30T15:19:51;5.90;;;4.37;;
1699;SDS011;847;48.058;7.810;2024-01-30T15:22:18;5.10;;;3.70;;
1699;SDS011;847;48.058;7.810;2024-01-30T15:24:45;4.53;;;3.63;;
1699;SDS011;847;48.058;7.810;2024-01-30T15:27:13;4.27;;;3.87;;
1699;SDS011;847;48.058;7.810;2024-01-30T15:29:40;4.07;;;3.67;;
1699;SDS011;847;48.058;7.810;2024-01-30T15:32:07;4.60;;;3.47;;
1699;SDS011;847;48.058;7.810;2024-01-30T15:34:34;5.40;;;3.60;;
1699;SDS011;847;48.058;7.810;2024-01-30T15:37:02;8.63;;;5.67;;
1699;SDS011;847;48.058;7.810;2024-01-30T15:39:32;10.90;;;7.67;;
1699;SDS011;847;48.058;7.810;2024-01-30T15:41:59;5.33;;;4.07;;
1699;SDS011;847;48.058;7.810;2024-01-30T15:44:27;9.93;;;8.10;;
1699;SDS011;847;48.058;7.810;2024-01-30T15:46:55;7.00;;;6.30;;
1699;SDS011;847;48.058;7.810;2024-01-30T15:49:23;6.10;;;5.50;;
1699;SDS011;847;48.058;7.810;2024-01-30T15:51:51;5.53;;;4.60;;
1699;SDS011;847;48.058;7.810;2024-01-30T15:54:18;5.30;;;4.77;;
1699;SDS011;847;48.058;7.810;2024-01-30T15:56:45;6.87;;;4.83;;
1699;SDS011;847;48.058;7.810;2024-01-30T15:59:12;4.80;;;4.40;;
1699;SDS011;847;48.058;7.810;2024-01-30T16:01:42;7.37;;;5.10;;
1699;SDS011;847;48.058;7.810;2024-01-30T16:04:13;7.57;;;6.10;;
1699;SDS011;847;48.058;7.810;2024-01-30T16:09:39;6.13;;;5.10;;
1699;SDS011;847;48.058;7.810;2024-01-30T16:12:06;4.80;;;4.30;;
1699;SDS011;847;48.058;7.810;2024-01-30T16:14:36;4.70;;;4.13;;
1699;SDS011;847;48.058;7.810;2024-01-30T16:17:04;6.33;;;5.73;;
1699;SDS011;847;48.058;7.810;2024-01-30T16:19:33;8.40;;;5.30;;
1699;SDS011;847;48.058;7.810;2024-01-30T16:22:02;7.40;;;5.50;;
1699;SDS011;847;48.058;7.810;2024-01-30T16:24:40;6.80;;;5.63;;
1699;SDS011;847;48.058;7.810;2024-01-30T16:27:07;8.73;;;5.67;;
1699;SDS011;847;48.058;7.810;2024-01-30T16:29:34;7.13;;;5.13;;
1699;SDS011;847;48.058;7.810;2024-01-30T16:32:08;7.00;;;6.13;;
1699;SDS011;847;48.058;7.810;2024-01-30T16:34:35;7.37;;;5.77;;
1699;SDS011;847;48.058;7.810;2024-01-30T16:37:06;8.53;;;6.23;;
1699;SDS011;847;48.058;7.810;2024-01-30T16:39:43;6.77;;;5.90;;
1699;SDS011;847;48.058;7.810;2024-01-30T16:42:33;12.93;;;7.90;;
1699;SDS011;847;48.058;7.810;2024-01-30T16:45:04;14.00;;;8.87;;
1699;SDS011;847;48.058;7.810;2024-01-30T17:06:49;15.10;;;10.90;;
1699;SDS011;847;48.058;7.810;2024-01-30T17:09:17;10.77;;;8.53;;
1699;SDS011;847;48.058;7.810;2024-01-30T17:11:44;10.93;;;8.03;;
1699;SDS011;847;48.058;7.810;2024-01-30T17:14:10;13.07;;;8.27;;
1699;SDS011;847;48.058;7.810;2024-01-30T17:16:39;7.20;;;6.50;;
1699;SDS011;847;48.058;7.810;2024-01-30T17:19:05;9.17;;;7.23;;
1699;SDS011;847;48.058;7.810;2024-01-30T17:21:34;8.50;;;6.63;;
1699;SDS011;847;48.058;7.810;2024-01-30T17:24:03;10.40;;;7.23;;
1699;SDS011;847;48.058;7.810;2024-01-30T17:26:32;6.00;;;5.40;;
1699;SDS011;847;48.058;7.810;2024-01-30T17:28:59;13.17;;;6.40;;
1699;SDS011;847;48.058;7.810;2024-01-30T17:31:25;7.47;;;6.17;;
1699;SDS011;847;48.058;7.810;2024-01-30T17:33:52;9.60;;;7.43;;
1699;SDS011;847;48.058;7.810;2024-01-30T17:36:19;9.00;;;6.10;;
1699;SDS011;847;48.058;7.810;2024-01-30T17:38:47;9.57;;;6.47;;
1699;SDS011;847;48.058;7.810;2024-01-30T17:41:15;8.47;;;7.33;;
1699;SDS011;847;48.058;7.810;2024-01-30T17:43:42;9.60;;;7.60;;
1699;SDS011;847;48.058;7.810;2024-01-30T17:46:09;8.70;;;6.43;;
1699;SDS011;847;48.058;7.810;2024-01-30T17:48:35;8.37;;;7.00;;
1699;SDS011;847;48.058;7.810;2024-01-30T17:51:02;8.53;;;6.30;;
1699;SDS011;847;48.058;7.810;2024-01-30T17:53:29;10.17;;;7.00;;
1699;SDS011;847;48.058;7.810;2024-01-30T17:55:56;9.43;;;6.83;;
1699;SDS011;847;48.058;7.810;2024-01-30T17:58:31;9.43;;;8.47;;
1699;SDS011;847;48.058;7.810;2024-01-30T18:00:58;12.27;;;9.93;;
1699;SDS011;847;48.058;7.810;2024-01-30T18:03:25;10.23;;;7.73;;
1699;SDS011;847;48.058;7.810;2024-01-30T18:05:52;10.47;;;9.30;;
1699;SDS011;847;48.058;7.810;2024-01-30T18:08:20;13.23;;;10.20;;